Time;durP1;ratioP1;P1;durP2;ratioP2;P2;SDS_P1;SDS_P2;PMS_P1;PMS_P2;Temp;Humidity;BMP_temperature;BMP_pressure;BME280_temperature;BME280_humidity;BME280_pressure;Samples;Min_cycle;Max_cycle;Signal;HPM_P1;HPM_P2
2024/01/04 00:00:00;;;;;;;11.03;8.60;;;14.10;68.40;;;;;;349608;28;1032;-55
2024/01/04 00:00:11;;;;;;;10.52;8.18;;;14.10;68.40;;;;;;349568;28;1363;-52
2024/01/04 00:00:23;;;;;;;9.30;7.40;;;14.10;68.40;;;;;;349615;28;1050;-55
2024/01/04 00:00:34;;;;;;;8.77;7.13;;;14.10;68.40;;;;;;349537;28;1055;-55
2024/01/04 00:00:45;;;;;;;9.23;7.53;;;14.10;68.30;;;;;;349548;28;909;-54
2024/01/04 00:00:55;;;;;;;10.00;7.78;;;14.10;68.30;;;;;;349576;28;2430;-54
2024/01/04 00:01:11;;;;;;;11.35;7.95;;;14.10;68.30;;;;;;349634;28;960;-54
2024/01/04 00:01:22;;;;;;;12.00;7.95;;;14.10;68.30;;;;;;349583;28;1874;-55
2024/01/04 00:01:36;;;;;;;11.63;7.93;;;14.10;68.30;;;;;;349568;28;1277;-55
2024/01/04 00:01:47;;;;;;;11.25;7.97;;;14.20;68.40;;;;;;349547;28;1024;-55
2024/01/04 00:01:57;;;;;;;11.83;8.10;;;14.10;68.30;;;;;;349515;28;1083;-56
2024/01/04 00:02:08;;;;;;;12.10;7.88;;;14.10;68.30;;;;;;349585;28;971;-55
2024/01/04 00:02:19;;;;;;;11.13;7.97;;;14.10;68.20;;;;;;349575;28;1352;-55
2024/01/04 00:02:30;;;;;;;12.15;8.13;;;14.20;68.20;;;;;;349498;28;1165;-57
2024/01/04 00:02:43;;;;;;;12.65;8.30;;;14.10;68.20;;;;;;349572;28;1426;-54
2024/01/04 00:02:54;;;;;;;11.63;7.70;;;14.10;68.10;;;;;;349602;28;923;-55
2024/01/04 00:03:04;;;;;;;10.70;7.50;;;14.10;68.10;;;;;;349440;28;1894;-55
2024/01/04 00:03:15;;;;;;;10.05;7.15;;;14.10;68.10;;;;;;349620;28;950;-55
2024/01/04 00:03:26;;;;;;;9.65;7.32;;;14.10;68.20;;;;;;349610;28;824;-55
2024/01/04 00:03:37;;;;;;;9.23;7.43;;;14.10;68.10;;;;;;349508;28;1034;-54
2024/01/04 00:03:48;;;;;;;10.15;7.80;;;14.20;68.10;;;;;;349560;28;1095;-54
2024/01/04 00:03:58;;;;;;;10.45;7.68;;;14.10;68.10;;;;;;349565;28;1408;-54
2024/01/04 00:04:09;;;;;;;11.63;7.83;;;14.10;68.10;;;;;;349540;28;979;-55
2024/01/04 00:04:20;;;;;;;10.82;7.80;;;14.10;68.10;;;;;;349578;28;895;-55
2024/01/04 00:04:31;;;;;;;10.13;7.95;;;14.20;68.20;;;;;;349552;28;944;-55
2024/01/04 00:04:41;;;;;;;9.40;7.78;;;14.10;68.20;;;;;;349500;28;1015;-55
2024/01/04 00:04:52;;;;;;;8.80;7.53;;;14.10;68.20;;;;;;349556;28;1011;-55
2024/01/04 00:05:03;;;;;;;8.75;7.38;;;14.20;68.20;;;;;;349529;28;1711;-54
2024/01/04 00:05:14;;;;;;;8.55;7.05;;;14.20;68.30;;;;;;349515;28;983;-54
2024/01/04 00:05:25;;;;;;;9.27;6.90;;;14.10;68.30;;;;;;349602;28;828;-54
2024/01/04 00:05:36;;;;;;;8.82;6.90;;;14.10;68.30;;;;;;349619;28;877;-55
2024/01/04 00:05:46;;;;;;;8.82;6.85;;;14.10;68.30;;;;;;349448;28;1054;-54
2024/01/04 00:05:57;;;;;;;8.52;7.05;;;14.10;68.30;;;;;;349590;28;955;-54
2024/01/04 00:06:08;;;;;;;9.18;7.25;;;14.10;68.30;;;;;;349645;28;852;-54
2024/01/04 00:06:20;;;;;;;8.73;6.95;;;14.10;68.30;;;;;;349502;28;1298;-54
2024/01/04 00:06:30;;;;;;;8.50;6.57;;;14.10;68.40;;;;;;349611;28;995;-54
2024/01/04 00:06:44;;;;;;;7.78;6.32;;;14.10;68.40;;;;;;349826;28;972;-55
2024/01/04 00:06:54;;;;;;;10.05;6.32;;;14.10;68.40;;;;;;349734;28;1062;-55
2024/01/04 00:07:05;;;;;;;10.20;6.40;;;14.10;68.50;;;;;;349843;28;1034;-55
2024/01/04 00:07:16;;;;;;;10.10;6.53;;;14.10;68.50;;;;;;349826;28;876;-55
2024/01/04 00:07:27;;;;;;;8.95;6.82;;;14.10;68.50;;;;;;349753;28;992;-55
2024/01/04 00:07:38;;;;;;;8.52;6.88;;;14.10;68.40;;;;;;349803;28;892;-55
2024/01/04 00:07:49;;;;;;;8.60;6.50;;;14.10;68.40;;;;;;349876;28;1527;-55
2024/01/04 00:07:59;;;;;;;8.32;6.40;;;14.10;68.40;;;;;;349742;28;1217;-54
2024/01/04 00:08:10;;;;;;;9.18;6.72;;;14.10;68.50;;;;;;349813;28;1200;-55
2024/01/04 00:08:21;;;;;;;9.63;6.97;;;14.10;68.50;;;;;;349834;28;1059;-55
2024/01/04 00:08:32;;;;;;;9.35;6.65;;;14.10;68.50;;;;;;349735;28;960;-55
2024/01/04 00:08:43;;;;;;;7.88;6.20;;;14.10;68.50;;;;;;349832;28;983;-54
2024/01/04 00:08:54;;;;;;;7.57;6.13;;;14.10;68.50;;;;;;349824;28;2735;-56
2024/01/04 00:09:04;;;;;;;7.93;5.80;;;14.10;68.50;;;;;;349725;28;1442;-54
2024/01/04 00:09:15;;;;;;;8.00;5.85;;;14.10;68.50;;;;;;349840;28;1813;-54
2024/01/04 00:09:26;;;;;;;7.60;5.85;;;14.10;68.50;;;;;;349803;28;1109;-55
2024/01/04 00:09:37;;;;;;;7.60;6.10;;;14.10;68.50;;;;;;349750;28;1037;-57
2024/01/04 00:09:48;;;;;;;8.03;6.30;;;14.10;68.40;;;;;;349862;28;1181;-55
2024/01/04 00:09:59;;;;;;;7.70;6.00;;;14.10;68.50;;;;;;349836;28;943;-54
2024/01/04 00:10:10;;;;;;;8.37;6.03;;;14.10;68.40;;;;;;349780;28;1079;-56
2024/01/04 00:10:21;;;;;;;7.57;5.65;;;14.10;68.40;;;;;;349863;28;918;-54
2024/01/04 00:10:32;;;;;;;7.68;5.63;;;14.10;68.30;;;;;;349826;28;955;-54
2024/01/04 00:10:42;;;;;;;8.10;5.73;;;14.10;68.30;;;;;;349755;28;1400;-55
2024/01/04 00:10:53;;;;;;;8.32;6.03;;;14.10;68.30;;;;;;349815;28;1102;-55
2024/01/04 00:11:07;;;;;;;9.18;6.28;;;14.10;68.40;;;;;;349846;28;1057;-54
2024/01/04 00:11:18;;;;;;;9.10;6.30;;;14.10;68.30;;;;;;349777;28;921;-54
2024/01/04 00:11:28;;;;;;;9.63;6.50;;;14.10;68.30;;;;;;349787;28;1177;-55
2024/01/04 00:11:40;;;;;;;9.07;6.53;;;14.10;68.40;;;;;;349841;28;1015;-55
2024/01/04 00:11:51;;;;;;;8.68;6.47;;;14.10;68.40;;;;;;349813;28;1018;-55
2024/01/04 00:12:01;;;;;;;8.38;6.15;;;14.10;68.40;;;;;;349743;28;962;-55
2024/01/04 00:12:12;;;;;;;7.70;5.93;;;14.10;68.40;;;;;;349860;28;951;-54
2024/01/04 00:12:23;;;;;;;7.20;5.75;;;14.10;68.40;;;;;;349868;28;797;-55
2024/01/04 00:12:34;;;;;;;8.02;5.82;;;14.10;68.40;;;;;;349773;28;2636;-54
2024/01/04 00:12:45;;;;;;;8.48;5.72;;;14.10;68.40;;;;;;349738;28;1019;-55
2024/01/04 00:12:55;;;;;;;8.38;5.90;;;14.00;68.40;;;;;;349783;28;995;-54
2024/01/04 00:13:06;;;;;;;7.80;5.82;;;14.10;68.40;;;;;;349824;28;1018;-55
2024/01/04 00:13:17;;;;;;;8.17;5.77;;;14.00;68.40;;;;;;349823;28;914;-55
2024/01/04 00:13:28;;;;;;;8.20;5.82;;;14.10;68.40;;;;;;349718;28;1106;-55
2024/01/04 00:13:39;;;;;;;8.15;5.90;;;14.00;68.40;;;;;;349785;28;1023;-55
2024/01/04 00:13:49;;;;;;;8.13;5.85;;;14.00;68.40;;;;;;349834;28;1137;-54
2024/01/04 00:14:02;;;;;;;8.13;5.90;;;14.00;68.40;;;;;;349815;28;943;-54
2024/01/04 00:14:13;;;;;;;8.82;6.40;;;14.00;68.40;;;;;;349752;28;1592;-54
2024/01/04 00:14:24;;;;;;;9.07;6.40;;;14.00;68.40;;;;;;349828;28;978;-53
2024/01/04 00:14:34;;;;;;;8.48;5.82;;;14.00;68.40;;;;;;349865;28;853;-55
2024/01/04 00:14:45;;;;;;;8.07;5.70;;;14.00;68.50;;;;;;349750;28;1017;-55
2024/01/04 00:14:59;;;;;;;8.63;6.10;;;14.00;68.50;;;;;;349806;28;1504;-54
2024/01/04 00:15:10;;;;;;;11.27;7.22;;;14.00;68.50;;;;;;349827;28;1046;-54
2024/01/04 00:15:20;;;;;;;13.18;9.63;;;14.00;68.50;;;;;;349809;28;1015;-55
2024/01/04 00:15:31;;;;;;;16.23;13.15;;;14.00;68.50;;;;;;349807;28;994;-54
2024/01/04 00:15:42;;;;;;;19.55;17.13;;;14.00;68.60;;;;;;349850;28;971;-54
2024/01/04 00:15:53;;;;;;;23.10;18.92;;;14.00;68.60;;;;;;349870;28;982;-55
2024/01/04 00:16:09;;;;;;;23.90;18.97;;;14.00;68.60;;;;;;349781;28;1001;-55
2024/01/04 00:16:20;;;;;;;24.75;18.45;;;14.00;68.70;;;;;;349788;28;982;-56
2024/01/04 00:16:34;;;;;;;26.85;20.40;;;13.90;68.80;;;;;;349849;28;867;-60
2024/01/04 00:16:45;;;;;;;29.00;22.23;;;14.00;68.80;;;;;;349771;28;953;-53
2024/01/04 00:16:56;;;;;;;31.88;24.33;;;14.00;68.80;;;;;;349795;28;1097;-55
2024/01/04 00:17:06;;;;;;;34.35;25.58;;;13.90;68.80;;;;;;349808;28;975;-55
2024/01/04 00:17:17;;;;;;;34.27;26.53;;;13.90;68.90;;;;;;349833;28;1010;-54
2024/01/04 00:17:28;;;;;;;29.87;24.50;;;14.00;68.90;;;;;;349794;28;989;-54
2024/01/04 00:17:39;;;;;;;25.25;21.58;;;13.90;68.90;;;;;;349804;28;1437;-54
2024/01/04 00:17:50;;;;;;;24.77;20.70;;;13.90;69.00;;;;;;349801;28;1105;-55
2024/01/04 00:18:03;;;;;;;24.35;19.58;;;13.90;69.00;;;;;;349824;28;1110;-54
2024/01/04 00:18:14;;;;;;;27.27;23.10;;;13.90;69.00;;;;;;349722;28;1153;-53
2024/01/04 00:18:25;;;;;;;31.85;26.58;;;13.90;69.00;;;;;;349806;28;975;-54
2024/01/04 00:18:36;;;;;;;38.42;30.10;;;13.90;69.00;;;;;;349813;28;1022;-54
2024/01/04 00:18:46;;;;;;;41.00;30.40;;;13.90;69.00;;;;;;349728;28;1027;-54
2024/01/04 00:18:57;;;;;;;39.60;29.17;;;13.90;69.00;;;;;;349784;28;1073;-54
2024/01/04 00:19:08;;;;;;;35.70;27.10;;;13.90;69.10;;;;;;349787;28;1000;-54
2024/01/04 00:19:19;;;;;;;34.10;24.43;;;13.90;69.10;;;;;;349867;28;959;-54
2024/01/04 00:19:29;;;;;;;30.98;21.10;;;13.90;69.10;;;;;;349823;28;880;-54
2024/01/04 00:19:40;;;;;;;28.27;18.88;;;13.90;69.10;;;;;;349782;28;1009;-55
2024/01/04 00:19:51;;;;;;;23.65;16.83;;;13.90;69.10;;;;;;349815;28;1066;-54
2024/01/04 00:20:02;;;;;;;20.40;14.30;;;13.90;69.10;;;;;;349796;28;1184;-54
2024/01/04 00:20:13;;;;;;;18.52;12.50;;;13.80;69.10;;;;;;349831;28;1807;-54
2024/01/04 00:20:24;;;;;;;16.30;11.13;;;13.90;69.20;;;;;;349724;28;2476;-54
2024/01/04 00:20:35;;;;;;;14.25;10.07;;;13.80;69.10;;;;;;349803;28;1042;-53
2024/01/04 00:20:47;;;;;;;12.38;9.25;;;13.80;69.10;;;;;;349868;28;1078;-54
2024/01/04 00:20:58;;;;;;;12.65;8.70;;;13.80;69.10;;;;;;349779;28;1122;-54
2024/01/04 00:21:12;;;;;;;13.10;8.45;;;13.80;69.10;;;;;;349881;28;890;-54
2024/01/04 00:21:23;;;;;;;12.38;8.25;;;13.80;69.10;;;;;;349757;28;1061;-54
2024/01/04 00:21:33;;;;;;;12.45;7.93;;;13.80;69.00;;;;;;349829;28;971;-53
2024/01/04 00:21:44;;;;;;;12.07;8.02;;;13.80;69.10;;;;;;349858;28;980;-55
2024/01/04 00:21:55;;;;;;;12.27;7.80;;;13.80;69.10;;;;;;349830;28;1077;-55
2024/01/04 00:22:06;;;;;;;11.82;7.78;;;13.70;69.10;;;;;;349816;28;967;-55
2024/01/04 00:22:16;;;;;;;11.05;7.75;;;13.80;69.20;;;;;;349740;28;959;-54
2024/01/04 00:22:27;;;;;;;11.20;8.02;;;13.80;69.20;;;;;;349812;28;994;-54
2024/01/04 00:22:38;;;;;;;9.77;7.60;;;13.80;69.20;;;;;;349802;28;1481;-55
2024/01/04 00:22:49;;;;;;;9.98;7.50;;;13.80;69.30;;;;;;349781;28;1106;-54
2024/01/04 00:22:59;;;;;;;9.80;7.38;;;13.80;69.30;;;;;;349861;28;1038;-54
2024/01/04 00:23:10;;;;;;;9.90;7.75;;;13.80;69.30;;;;;;349760;28;1054;-53
2024/01/04 00:23:21;;;;;;;9.95;7.90;;;13.70;69.30;;;;;;349785;28;1138;-54
2024/01/04 00:23:33;;;;;;;9.77;7.87;;;13.70;69.40;;;;;;349773;28;1281;-54
2024/01/04 00:23:44;;;;;;;10.25;7.72;;;13.70;69.40;;;;;;349805;28;2193;-54
2024/01/04 00:23:55;;;;;;;10.60;7.72;;;13.70;69.40;;;;;;349780;28;1118;-54
2024/01/04 00:24:06;;;;;;;11.13;7.82;;;13.70;69.50;;;;;;349760;28;1094;-54
2024/01/04 00:24:17;;;;;;;10.90;8.13;;;13.70;69.50;;;;;;349864;28;907;-55
2024/01/04 00:24:28;;;;;;;9.50;7.63;;;13.70;69.50;;;;;;349765;28;1035;-55
2024/01/04 00:24:39;;;;;;;8.85;7.32;;;13.80;69.50;;;;;;349817;28;840;-55
2024/01/04 00:24:50;;;;;;;9.02;7.28;;;13.70;69.60;;;;;;349828;28;1770;-55
2024/01/04 00:25:00;;;;;;;9.43;7.23;;;13.70;69.60;;;;;;349687;28;1280;-54
2024/01/04 00:25:11;;;;;;;9.90;7.50;;;13.70;69.60;;;;;;349832;28;993;-53
2024/01/04 00:25:22;;;;;;;9.70;7.47;;;13.70;69.60;;;;;;349830;28;1018;-54
2024/01/04 00:25:33;;;;;;;9.63;7.38;;;13.70;69.60;;;;;;349769;28;1054;-54
2024/01/04 00:25:43;;;;;;;10.40;7.40;;;13.70;69.60;;;;;;349734;28;1568;-55
2024/01/04 00:25:54;;;;;;;10.20;7.37;;;13.70;69.70;;;;;;349756;28;978;-53
2024/01/04 00:26:05;;;;;;;10.48;7.75;;;13.70;69.70;;;;;;349788;28;1003;-54
2024/01/04 00:26:16;;;;;;;9.55;7.88;;;13.70;69.70;;;;;;349838;28;907;-54
2024/01/04 00:26:27;;;;;;;9.13;7.43;;;13.70;69.70;;;;;;349738;28;963;-53
2024/01/04 00:26:38;;;;;;;8.75;7.05;;;13.70;69.70;;;;;;349857;28;983;-55
2024/01/04 00:26:48;;;;;;;9.20;7.32;;;13.70;69.70;;;;;;349811;28;1011;-55
2024/01/04 00:26:59;;;;;;;10.02;7.53;;;13.70;69.70;;;;;;349770;28;1070;-54
2024/01/04 00:27:10;;;;;;;10.30;7.50;;;13.70;69.70;;;;;;349847;28;797;-55
2024/01/04 00:27:21;;;;;;;10.30;7.43;;;13.70;69.70;;;;;;349816;28;911;-55
2024/01/04 00:27:31;;;;;;;11.02;7.53;;;13.70;69.70;;;;;;349689;28;1435;-54
2024/01/04 00:27:42;;;;;;;10.32;7.43;;;13.70;69.70;;;;;;349826;28;1801;-54
2024/01/04 00:27:53;;;;;;;10.00;7.22;;;13.70;69.70;;;;;;349806;28;959;-54
2024/01/04 00:28:04;;;;;;;9.82;7.20;;;13.70;69.70;;;;;;349731;28;1069;-55
2024/01/04 00:28:15;;;;;;;9.70;7.43;;;13.70;69.70;;;;;;349769;28;1002;-55
2024/01/04 00:28:26;;;;;;;9.95;7.70;;;13.70;69.70;;;;;;349841;28;789;-54
2024/01/04 00:28:37;;;;;;;9.48;7.55;;;13.70;69.70;;;;;;349690;28;1153;-54
2024/01/04 00:28:48;;;;;;;8.97;7.23;;;13.70;69.80;;;;;;349791;28;1972;-54
2024/01/04 00:28:59;;;;;;;9.10;7.57;;;13.70;69.80;;;;;;349761;28;1020;-55
2024/01/04 00:29:10;;;;;;;10.20;8.05;;;13.70;69.80;;;;;;349739;28;980;-54
2024/01/04 00:29:21;;;;;;;10.60;8.18;;;13.70;69.80;;;;;;349834;28;1063;-55
2024/01/04 00:29:31;;;;;;;11.47;7.73;;;13.70;69.80;;;;;;349768;28;1950;-54
2024/01/04 00:29:43;;;;;;;11.25;7.55;;;13.70;69.90;;;;;;349641;28;1205;-54
2024/01/04 00:29:53;;;;;;;10.20;7.38;;;13.70;70.00;;;;;;349872;28;943;-54
2024/01/04 00:30:05;;;;;;;9.50;7.50;;;13.70;70.00;;;;;;349793;28;1103;-55
2024/01/04 00:30:16;;;;;;;9.98;7.50;;;13.70;70.00;;;;;;349720;28;975;-54
2024/01/04 00:30:26;;;;;;;10.32;7.57;;;13.70;70.00;;;;;;349850;28;832;-55
2024/01/04 00:30:37;;;;;;;10.80;7.80;;;13.70;70.10;;;;;;349799;28;1007;-54
2024/01/04 00:30:48;;;;;;;10.70;7.94;;;13.70;70.20;;;;;;349767;28;934;-54
2024/01/04 00:30:59;;;;;;;10.60;8.23;;;13.70;70.20;;;;;;349829;28;1848;-54
2024/01/04 00:31:10;;;;;;;11.63;8.27;;;13.70;70.20;;;;;;349766;28;1439;-55
2024/01/04 00:31:20;;;;;;;10.65;7.93;;;13.70;70.20;;;;;;349699;28;1465;-55
2024/01/04 00:31:31;;;;;;;11.35;8.05;;;13.70;70.30;;;;;;349771;28;1431;-55
2024/01/04 00:31:42;;;;;;;10.13;7.87;;;13.70;70.40;;;;;;349816;28;1022;-55
2024/01/04 00:31:55;;;;;;;10.20;8.18;;;13.70;70.40;;;;;;349719;28;1011;-53
2024/01/04 00:32:06;;;;;;;10.00;8.23;;;13.70;70.50;;;;;;349788;28;991;-53
2024/01/04 00:32:17;;;;;;;9.57;7.97;;;13.70;70.50;;;;;;349765;28;1093;-54
2024/01/04 00:32:28;;;;;;;8.53;7.50;;;13.70;70.60;;;;;;349677;28;1708;-54
2024/01/04 00:32:38;;;;;;;9.85;8.10;;;13.70;70.60;;;;;;349890;28;785;-53
2024/01/04 00:32:49;;;;;;;10.70;8.52;;;13.70;70.60;;;;;;349793;28;1066;-53
2024/01/04 00:33:00;;;;;;;11.88;8.45;;;13.70;70.60;;;;;;349720;28;965;-55
2024/01/04 00:33:11;;;;;;;10.93;8.32;;;13.70;70.70;;;;;;349803;28;1038;-54
2024/01/04 00:33:21;;;;;;;11.30;8.30;;;13.70;70.70;;;;;;349847;28;801;-54
2024/01/04 00:33:32;;;;;;;10.98;8.15;;;13.70;70.70;;;;;;349706;28;1169;-55
2024/01/04 00:33:43;;;;;;;11.50;7.82;;;13.70;70.70;;;;;;349803;28;999;-54
2024/01/04 00:33:54;;;;;;;11.55;8.25;;;13.70;70.70;;;;;;349794;28;804;-54
2024/01/04 00:34:06;;;;;;;11.10;8.55;;;13.70;70.70;;;;;;349754;28;915;-55
2024/01/04 00:34:17;;;;;;;11.20;8.90;;;13.70;70.80;;;;;;349776;28;1006;-54
2024/01/04 00:34:28;;;;;;;10.93;8.88;;;13.70;70.80;;;;;;349842;28;844;-55
2024/01/04 00:34:39;;;;;;;10.40;8.73;;;13.70;70.80;;;;;;349656;28;1141;-56
2024/01/04 00:34:49;;;;;;;10.07;8.35;;;13.70;70.80;;;;;;349766;28;1011;-54
2024/01/04 00:35:00;;;;;;;10.87;8.47;;;13.70;70.80;;;;;;349761;28;1251;-54
2024/01/04 00:35:11;;;;;;;12.18;8.52;;;13.70;70.90;;;;;;349730;28;1063;-55
2024/01/04 00:35:22;;;;;;;13.15;8.63;;;13.60;70.90;;;;;;349753;28;1302;-54
2024/01/04 00:35:33;;;;;;;12.65;8.35;;;13.70;71.00;;;;;;349842;28;979;-55
2024/01/04 00:35:43;;;;;;;12.35;8.80;;;13.70;71.00;;;;;;349673;28;987;-55
2024/01/04 00:35:54;;;;;;;12.07;8.95;;;13.70;71.00;;;;;;349781;28;896;-55
2024/01/04 00:36:06;;;;;;;11.73;9.17;;;13.70;71.10;;;;;;349799;28;970;-54
2024/01/04 00:36:17;;;;;;;12.25;9.15;;;13.70;71.10;;;;;;349841;28;964;-54
2024/01/04 00:36:28;;;;;;;11.88;9.02;;;13.70;71.20;;;;;;349714;28;935;-54
2024/01/04 00:36:39;;;;;;;12.73;9.32;;;13.70;71.20;;;;;;349829;28;832;-55
2024/01/04 00:36:49;;;;;;;12.10;9.32;;;13.70;71.30;;;;;;349826;28;875;-55
2024/01/04 00:37:00;;;;;;;12.07;9.18;;;13.70;71.30;;;;;;349831;28;971;-55
2024/01/04 00:37:11;;;;;;;11.60;9.05;;;13.70;71.40;;;;;;349658;28;1733;-55
2024/01/04 00:37:22;;;;;;;11.30;8.95;;;13.70;71.40;;;;;;349733;28;1591;-55
2024/01/04 00:37:33;;;;;;;11.10;8.83;;;13.70;71.40;;;;;;349786;28;1022;-55
2024/01/04 00:37:44;;;;;;;12.23;8.93;;;13.60;71.40;;;;;;349767;28;1113;-55
2024/01/04 00:37:56;;;;;;;12.30;9.00;;;13.70;71.40;;;;;;349714;28;1092;-55
2024/01/04 00:38:07;;;;;;;12.57;9.10;;;13.70;71.40;;;;;;349763;28;1134;-53
2024/01/04 00:38:18;;;;;;;12.18;9.43;;;13.70;71.40;;;;;;349785;28;1043;-53
2024/01/04 00:38:29;;;;;;;12.05;9.68;;;13.70;71.30;;;;;;349769;28;991;-54
2024/01/04 00:38:39;;;;;;;11.73;9.87;;;13.70;71.30;;;;;;349773;28;1103;-55
2024/01/04 00:38:50;;;;;;;12.77;9.60;;;13.70;71.30;;;;;;349827;28;891;-54
2024/01/04 00:39:01;;;;;;;12.75;9.20;;;13.70;71.30;;;;;;349747;28;1484;-54
2024/01/04 00:39:12;;;;;;;12.32;8.57;;;13.70;71.30;;;;;;349790;28;1070;-53
2024/01/04 00:39:24;;;;;;;12.13;8.98;;;13.70;71.30;;;;;;349713;28;1331;-53
2024/01/04 00:39:35;;;;;;;12.18;8.93;;;13.70;71.30;;;;;;349740;28;971;-54
2024/01/04 00:39:45;;;;;;;12.38;9.07;;;13.70;71.30;;;;;;349792;28;1050;-55
2024/01/04 00:39:56;;;;;;;11.37;8.77;;;13.60;71.30;;;;;;349815;28;971;-54
2024/01/04 00:40:08;;;;;;;12.43;9.15;;;13.60;71.30;;;;;;349721;28;1047;-54
2024/01/04 00:40:19;;;;;;;12.40;9.07;;;13.60;71.30;;;;;;349755;28;1480;-54
2024/01/04 00:40:30;;;;;;;12.75;8.95;;;13.60;71.30;;;;;;349790;28;1476;-55
2024/01/04 00:40:41;;;;;;;12.00;8.57;;;13.60;71.40;;;;;;349845;28;837;-54
2024/01/04 00:40:52;;;;;;;10.60;8.57;;;13.60;71.40;;;;;;349789;28;1094;-55
2024/01/04 00:41:03;;;;;;;10.93;8.90;;;13.60;71.40;;;;;;349728;28;1090;-53
2024/01/04 00:41:16;;;;;;;11.10;9.20;;;13.60;71.40;;;;;;349749;28;1032;-54
2024/01/04 00:41:26;;;;;;;12.65;9.30;;;13.60;71.40;;;;;;349769;28;963;-55
2024/01/04 00:41:37;;;;;;;13.50;9.05;;;13.60;71.40;;;;;;349825;28;931;-54
2024/01/04 00:41:48;;;;;;;13.07;8.77;;;13.60;71.40;;;;;;349810;28;1098;-53
2024/01/04 00:41:59;;;;;;;11.70;8.85;;;13.60;71.50;;;;;;349526;28;1164;-54
2024/01/04 00:42:09;;;;;;;12.80;9.47;;;13.60;71.50;;;;;;349794;28;880;-54
2024/01/04 00:42:20;;;;;;;12.95;9.55;;;13.60;71.50;;;;;;349767;28;1098;-55
2024/01/04 00:42:31;;;;;;;12.98;9.23;;;13.60;71.50;;;;;;349793;28;1509;-55
2024/01/04 00:42:42;;;;;;;12.00;8.68;;;13.60;71.50;;;;;;349802;28;998;-55
2024/01/04 00:42:53;;;;;;;11.85;8.52;;;13.60;71.60;;;;;;349692;28;1094;-54
2024/01/04 00:43:04;;;;;;;12.48;9.27;;;13.60;71.60;;;;;;349660;28;1906;-54
2024/01/04 00:43:15;;;;;;;12.23;9.75;;;13.60;71.60;;;;;;349829;28;863;-54
2024/01/04 00:43:25;;;;;;;12.00;9.73;;;13.60;71.70;;;;;;349752;28;1165;-56
2024/01/04 00:43:39;;;;;;;12.63;9.60;;;13.60;71.70;;;;;;349789;28;1011;-54
2024/01/04 00:43:50;;;;;;;14.30;9.68;;;13.60;71.70;;;;;;349703;28;1882;-54
2024/01/04 00:44:01;;;;;;;14.18;9.68;;;13.60;71.70;;;;;;349788;28;1074;-54
2024/01/04 00:44:11;;;;;;;12.93;9.77;;;13.60;71.80;;;;;;349795;28;907;-54
2024/01/04 00:44:22;;;;;;;12.93;9.83;;;13.60;71.80;;;;;;349802;28;999;-55
2024/01/04 00:44:33;;;;;;;14.33;10.40;;;13.60;71.80;;;;;;349750;28;1023;-54
2024/01/04 00:44:44;;;;;;;14.50;10.57;;;13.60;71.80;;;;;;349771;28;972;-54
2024/01/04 00:44:55;;;;;;;13.80;10.25;;;13.60;71.80;;;;;;349813;28;888;-55
2024/01/04 00:45:06;;;;;;;13.48;10.20;;;13.60;71.80;;;;;;349826;28;891;-55
2024/01/04 00:45:17;;;;;;;13.55;10.25;;;13.60;71.80;;;;;;349739;28;1281;-55
2024/01/04 00:45:27;;;;;;;14.45;10.40;;;13.60;71.80;;;;;;349758;28;1035;-54
2024/01/04 00:45:38;;;;;;;15.13;10.18;;;13.60;71.80;;;;;;349710;28;1015;-55
2024/01/04 00:45:49;;;;;;;14.98;9.65;;;13.60;71.80;;;;;;349834;28;817;-55
2024/01/04 00:46:00;;;;;;;13.17;9.00;;;13.60;71.80;;;;;;349795;28;876;-54
2024/01/04 00:46:11;;;;;;;13.00;9.18;;;13.60;71.90;;;;;;349817;28;1065;-54
2024/01/04 00:46:21;;;;;;;12.75;9.32;;;13.60;71.90;;;;;;349803;28;1035;-54
2024/01/04 00:46:32;;;;;;;13.50;9.73;;;13.60;71.90;;;;;;349725;28;1067;-54
2024/01/04 00:46:43;;;;;;;13.60;9.82;;;13.60;71.90;;;;;;349812;28;872;-54
2024/01/04 00:46:54;;;;;;;14.55;10.45;;;13.60;71.90;;;;;;349797;28;963;-53
2024/01/04 00:47:05;;;;;;;13.77;10.38;;;13.60;71.90;;;;;;349724;28;1001;-53
2024/01/04 00:47:15;;;;;;;14.38;10.70;;;13.60;71.90;;;;;;349776;28;999;-54
2024/01/04 00:47:26;;;;;;;14.57;10.63;;;13.60;71.90;;;;;;349639;28;1323;-54
2024/01/04 00:47:37;;;;;;;14.90;10.57;;;13.60;71.90;;;;;;349743;28;1189;-55
2024/01/04 00:47:48;;;;;;;14.27;9.88;;;13.60;71.90;;;;;;349830;28;789;-54
2024/01/04 00:47:59;;;;;;;15.50;10.20;;;13.60;71.90;;;;;;349784;28;1090;-55
2024/01/04 00:48:09;;;;;;;15.95;10.73;;;13.60;71.90;;;;;;349683;28;1309;-54
2024/01/04 00:48:20;;;;;;;17.70;11.10;;;13.60;71.90;;;;;;349785;28;891;-54
2024/01/04 00:48:31;;;;;;;21.23;12.00;;;13.60;72.00;;;;;;349828;28;955;-54
2024/01/04 00:48:42;;;;;;;23.50;12.18;;;13.60;71.90;;;;;;349771;28;989;-54
2024/01/04 00:48:52;;;;;;;24.17;12.55;;;13.60;72.00;;;;;;349711;28;1511;-54
2024/01/04 00:49:03;;;;;;;19.10;11.85;;;13.60;72.00;;;;;;349752;28;1042;-54
2024/01/04 00:49:14;;;;;;;18.93;11.83;;;13.60;72.00;;;;;;349752;28;940;-56
2024/01/04 00:49:25;;;;;;;18.35;11.38;;;13.60;72.00;;;;;;349817;28;824;-54
2024/01/04 00:49:35;;;;;;;19.50;11.55;;;13.60;72.10;;;;;;349742;28;1293;-54
2024/01/04 00:49:46;;;;;;;21.90;11.98;;;13.60;72.10;;;;;;349659;28;1356;-54
2024/01/04 00:49:57;;;;;;;23.60;12.32;;;13.60;72.10;;;;;;349754;28;1074;-54
2024/01/04 00:50:09;;;;;;;24.27;12.45;;;13.60;72.10;;;;;;349750;28;1054;-54
2024/01/04 00:50:19;;;;;;;23.50;12.48;;;13.60;72.20;;;;;;349754;28;1058;-54
2024/01/04 00:50:30;;;;;;;23.05;12.80;;;13.60;72.20;;;;;;349820;28;1171;-54
2024/01/04 00:50:42;;;;;;;21.38;12.70;;;13.60;72.30;;;;;;349847;28;812;-54
2024/01/04 00:50:52;;;;;;;21.20;12.70;;;13.60;72.40;;;;;;349740;28;1007;-54
2024/01/04 00:51:03;;;;;;;21.58;12.48;;;13.60;72.50;;;;;;349716;28;1027;-54
2024/01/04 00:51:14;;;;;;;21.60;12.57;;;13.60;72.50;;;;;;349850;28;828;-55
2024/01/04 00:51:25;;;;;;;23.23;12.43;;;13.60;72.60;;;;;;349697;28;1145;-54
2024/01/04 00:51:36;;;;;;;21.80;12.55;;;13.60;72.60;;;;;;349793;28;987;-54
2024/01/04 00:51:47;;;;;;;21.10;12.43;;;13.60;72.60;;;;;;349655;28;1531;-54
2024/01/04 00:51:58;;;;;;;18.27;12.38;;;13.60;72.60;;;;;;349770;28;920;-54
2024/01/04 00:52:09;;;;;;;19.67;12.55;;;13.50;72.60;;;;;;349775;28;979;-55
2024/01/04 00:52:20;;;;;;;20.38;12.70;;;13.60;72.70;;;;;;349746;28;1031;-54
2024/01/04 00:52:30;;;;;;;24.05;12.85;;;13.50;72.70;;;;;;349707;28;1109;-54
2024/01/04 00:52:41;;;;;;;23.47;12.60;;;13.50;72.70;;;;;;349741;28;1371;-54
2024/01/04 00:52:52;;;;;;;22.85;12.65;;;13.50;72.70;;;;;;349774;28;1006;-54
2024/01/04 00:53:03;;;;;;;21.08;12.80;;;13.50;72.80;;;;;;349764;28;1383;-54
2024/01/04 00:53:13;;;;;;;20.38;12.73;;;13.50;72.80;;;;;;349690;28;1005;-54
2024/01/04 00:53:24;;;;;;;20.00;12.57;;;13.50;72.90;;;;;;349813;28;820;-54
2024/01/04 00:53:35;;;;;;;20.67;12.63;;;13.60;72.90;;;;;;349803;28;959;-53
2024/01/04 00:53:46;;;;;;;22.40;13.27;;;13.50;72.90;;;;;;349743;28;1111;-54
2024/01/04 00:53:57;;;;;;;23.75;13.35;;;13.50;72.90;;;;;;349742;28;928;-54
2024/01/04 00:54:07;;;;;;;26.75;12.98;;;13.50;72.90;;;;;;349777;28;813;-54
2024/01/04 00:54:18;;;;;;;30.67;13.63;;;13.60;73.00;;;;;;349746;28;975;-55
2024/01/04 00:54:29;;;;;;;30.33;14.18;;;13.50;73.00;;;;;;349745;28;1793;-54
2024/01/04 00:54:40;;;;;;;28.83;15.15;;;13.50;73.00;;;;;;349684;28;1074;-55
2024/01/04 00:54:50;;;;;;;24.40;14.77;;;13.50;73.00;;;;;;349803;28;1027;-55
2024/01/04 00:55:01;;;;;;;25.15;14.90;;;13.50;73.00;;;;;;349799;28;1003;-55
2024/01/04 00:55:12;;;;;;;28.77;14.27;;;13.50;73.00;;;;;;349771;28;1096;-55
2024/01/04 00:55:23;;;;;;;35.40;14.10;;;13.50;73.00;;;;;;349723;28;1003;-54
2024/01/04 00:55:33;;;;;;;35.92;13.45;;;13.50;73.00;;;;;;349798;28;852;-53
2024/01/04 00:55:44;;;;;;;39.33;13.63;;;13.50;73.10;;;;;;349815;28;1003;-54
2024/01/04 00:55:55;;;;;;;37.30;13.43;;;13.50;73.10;;;;;;349741;28;1308;-54
2024/01/04 00:56:06;;;;;;;37.47;12.90;;;13.50;73.10;;;;;;349791;28;963;-55
2024/01/04 00:56:17;;;;;;;33.95;12.73;;;13.50;73.20;;;;;;349678;28;860;-55
2024/01/04 00:56:35;;;;;;;33.55;13.30;;;13.50;73.20;;;;;;349744;28;1145;-54
2024/01/04 00:56:46;;;;;;;35.35;14.10;;;13.50;73.20;;;;;;349714;28;1213;-54
2024/01/04 00:56:58;;;;;;;37.72;14.20;;;13.50;73.20;;;;;;349784;28;1090;-53
2024/01/04 00:57:08;;;;;;;43.92;14.15;;;13.50;73.20;;;;;;349721;28;1058;-56
2024/01/04 00:57:19;;;;;;;41.50;14.30;;;13.50;73.20;;;;;;349795;28;935;-53
2024/01/04 00:57:30;;;;;;;40.40;14.00;;;13.50;73.10;;;;;;349739;28;1046;-55
2024/01/04 00:57:41;;;;;;;32.33;13.67;;;13.50;73.10;;;;;;349797;28;998;-53
2024/01/04 00:57:52;;;;;;;32.88;13.57;;;13.50;73.10;;;;;;349786;28;828;-55
2024/01/04 00:58:03;;;;;;;34.50;13.85;;;13.50;73.10;;;;;;349715;28;1870;-54
2024/01/04 00:58:14;;;;;;;34.45;14.68;;;13.50;73.10;;;;;;349803;28;999;-54